Terminal Aerodrome Forecast
Issued by NWS Jackson, MS

Home | Current Version | Previous Version | Text Only | Print | Product List | Glossary On
Versions: 1 2 3 4 5 6 7 8 9 10 11 12
000
FTUS44 KJAN 040535
TAFHBG
TAF
KHBG 040535Z 0406/0506 11006KT 6SM -RA SCT035 OVC100
     FM041000 08004KT 4SM -RA BR OVC015
     FM041300 07004KT 4SM -RA BR OVC007
     FM041700 32004KT 4SM -RA BR OVC015
     FM050100 36004KT 4SM -RA BR OVC007
     FM050400 36003KT 4SM -RA BR OVC003=

USA.gov is the U.S. government's official web portal to all federal, state and local government web resources and services.